createdAt,value
2022-10-14T00:00:35.829Z,11.54
2022-10-14T00:03:02.181Z,11.54
2022-10-14T00:05:28.559Z,11.54
2022-10-14T00:07:54.929Z,11.60
2022-10-14T00:10:21.256Z,11.71
2022-10-14T00:12:47.605Z,11.64
2022-10-14T00:15:14.001Z,11.57
2022-10-14T00:17:40.325Z,11.56
2022-10-14T00:20:06.900Z,11.59
2022-10-14T00:22:33.206Z,11.57
2022-10-14T00:24:59.549Z,11.58
2022-10-14T00:27:25.885Z,11.48
2022-10-14T00:29:52.204Z,11.53
2022-10-14T00:32:18.538Z,11.49
2022-10-14T00:34:44.897Z,11.49
2022-10-14T00:37:11.248Z,11.62
2022-10-14T00:39:37.601Z,11.67
2022-10-14T00:42:04.021Z,11.59
2022-10-14T00:44:30.306Z,11.53
2022-10-14T00:46:56.635Z,11.53
2022-10-14T00:49:22.926Z,11.55
2022-10-14T00:51:53.347Z,11.56
2022-10-14T00:54:20.962Z,11.46
2022-10-14T00:56:47.589Z,11.47
2022-10-14T00:59:13.945Z,11.57
2022-10-14T01:01:40.488Z,11.49
2022-10-14T01:04:06.820Z,11.57
2022-10-14T01:06:52.148Z,11.60
2022-10-14T01:09:35.230Z,11.58
2022-10-14T01:12:35.350Z,11.56
2022-10-14T01:15:07.699Z,11.61
2022-10-14T01:17:39.423Z,11.53
2022-10-14T01:20:05.764Z,11.59
2022-10-14T01:22:35.650Z,11.58
2022-10-14T01:25:24.331Z,11.61
2022-10-14T01:28:09.528Z,11.62
2022-10-14T01:30:59.315Z,11.62
2022-10-14T01:33:26.862Z,11.62
2022-10-14T01:35:55.965Z,11.63
2022-10-14T01:38:35.924Z,11.61
2022-10-14T01:41:11.832Z,11.57
2022-10-14T01:43:38.187Z,11.59
2022-10-14T01:46:04.866Z,11.62
2022-10-14T01:48:32.324Z,11.57
2022-10-14T01:50:59.253Z,11.65
2022-10-14T01:53:26.205Z,11.67
2022-10-14T01:55:53.061Z,11.56
2022-10-14T01:58:19.384Z,11.62
2022-10-14T02:00:47.882Z,11.60
2022-10-14T02:03:14.260Z,11.62
2022-10-14T02:05:47.694Z,11.67
2022-10-14T02:08:18.067Z,11.68
2022-10-14T02:11:02.176Z,11.64
2022-10-14T02:13:55.163Z,11.63
2022-10-14T02:16:47.536Z,11.62
2022-10-14T02:19:20.071Z,11.66
2022-10-14T02:21:46.898Z,11.56
2022-10-14T02:24:20.384Z,11.59
2022-10-14T02:26:47.460Z,11.66
2022-10-14T02:29:13.789Z,11.57
2022-10-14T02:31:40.774Z,11.51
2022-10-14T02:34:07.396Z,11.57
2022-10-14T02:36:34.119Z,11.59
2022-10-14T02:39:00.607Z,11.56
2022-10-14T02:41:30.236Z,11.53
2022-10-14T02:43:56.571Z,11.58
2022-10-14T02:46:22.939Z,11.62
2022-10-14T02:48:49.583Z,11.71
2022-10-14T02:51:16.176Z,11.59
2022-10-14T02:53:42.771Z,11.60
2022-10-14T02:56:09.162Z,11.62
2022-10-14T02:58:35.474Z,11.63
2022-10-14T03:01:01.869Z,11.75
2022-10-14T03:03:28.199Z,11.69
2022-10-14T03:05:54.548Z,11.65
2022-10-14T03:08:20.885Z,11.72
2022-10-14T03:10:47.923Z,11.67
2022-10-14T03:13:14.414Z,11.61
2022-10-14T03:15:40.811Z,11.60
2022-10-14T03:18:07.121Z,11.58
2022-10-14T03:20:33.466Z,11.53
2022-10-14T03:22:59.795Z,11.56
2022-10-14T03:25:26.236Z,11.56
2022-10-14T03:27:52.578Z,11.61
2022-10-14T03:30:18.920Z,11.60
2022-10-14T03:32:45.245Z,11.57
2022-10-14T03:35:11.640Z,11.62
2022-10-14T03:37:37.972Z,11.54
2022-10-14T03:40:04.466Z,11.54
2022-10-14T03:42:30.777Z,11.58
2022-10-14T03:44:57.108Z,11.54
2022-10-14T03:47:23.451Z,11.55
2022-10-14T03:49:49.816Z,11.60
2022-10-14T03:52:16.139Z,11.66
2022-10-14T03:54:42.696Z,11.66
2022-10-14T03:57:09.445Z,11.67
2022-10-14T03:59:35.814Z,11.66
2022-10-14T04:02:02.202Z,11.66
2022-10-14T04:04:28.577Z,11.67
2022-10-14T04:06:54.998Z,11.67
2022-10-14T04:09:21.327Z,11.64
2022-10-14T04:11:47.653Z,11.65
2022-10-14T04:14:13.969Z,11.72
2022-10-14T04:16:40.321Z,11.69
2022-10-14T04:19:06.727Z,11.72
2022-10-14T04:21:33.074Z,11.69
2022-10-14T04:23:59.453Z,11.70
2022-10-14T04:26:25.813Z,11.67
2022-10-14T04:28:52.198Z,11.65
2022-10-14T04:31:18.582Z,11.63
2022-10-14T04:33:44.895Z,11.61
2022-10-14T04:36:11.240Z,11.63
2022-10-14T04:38:37.567Z,11.64
2022-10-14T04:41:03.909Z,11.56
2022-10-14T04:43:30.261Z,11.65
2022-10-14T04:45:56.604Z,11.61
2022-10-14T04:48:30.266Z,11.64
2022-10-14T04:50:56.675Z,11.65
2022-10-14T04:53:23.000Z,11.66
2022-10-14T04:55:49.686Z,11.59
2022-10-14T04:58:16.655Z,11.50
2022-10-14T05:00:43.036Z,11.48
2022-10-14T05:03:09.364Z,11.50
2022-10-14T05:05:35.712Z,11.45
2022-10-14T05:08:02.122Z,11.54
2022-10-14T05:10:28.920Z,11.62
2022-10-14T05:12:55.245Z,11.63
2022-10-14T05:15:21.678Z,11.59
2022-10-14T05:17:48.079Z,11.64
2022-10-14T05:20:14.511Z,11.58
2022-10-14T05:22:40.975Z,11.59
2022-10-14T05:25:07.485Z,11.55
2022-10-14T05:27:33.848Z,11.52
2022-10-14T05:30:00.179Z,11.58
2022-10-14T05:32:26.509Z,11.62
2022-10-14T05:34:52.919Z,11.62
2022-10-14T05:37:19.291Z,11.60
2022-10-14T05:39:45.608Z,11.59
2022-10-14T05:42:11.937Z,11.58
2022-10-14T05:44:38.318Z,11.62
2022-10-14T05:47:04.674Z,11.64
2022-10-14T05:49:31.009Z,11.67
2022-10-14T05:51:57.341Z,11.64
2022-10-14T05:54:23.688Z,11.62
2022-10-14T05:56:50.031Z,11.65
2022-10-14T05:59:16.409Z,11.67
2022-10-14T06:01:43.669Z,11.62
2022-10-14T06:04:13.258Z,11.68
2022-10-14T06:06:39.611Z,11.69
2022-10-14T06:09:11.037Z,11.65
2022-10-14T06:11:37.828Z,11.71
2022-10-14T06:14:04.765Z,11.64
2022-10-14T06:16:31.132Z,11.69
2022-10-14T06:18:57.880Z,11.75
2022-10-14T06:21:24.433Z,11.66
2022-10-14T06:23:50.810Z,11.68
2022-10-14T06:26:17.168Z,11.74
2022-10-14T06:28:43.684Z,11.68
2022-10-14T06:31:10.091Z,11.62
2022-10-14T06:33:36.418Z,11.62
2022-10-14T06:36:03.240Z,11.65
2022-10-14T06:38:29.558Z,11.55
2022-10-14T06:40:55.877Z,11.60
2022-10-14T06:43:22.254Z,11.58
2022-10-14T06:45:48.862Z,11.60
2022-10-14T06:48:15.284Z,11.63
2022-10-14T06:50:41.768Z,11.64
2022-10-14T06:53:08.662Z,11.65
2022-10-14T06:55:34.990Z,11.70
2022-10-14T06:58:01.314Z,11.61
2022-10-14T07:00:27.627Z,11.63
2022-10-14T07:02:53.975Z,11.67
2022-10-14T07:05:20.301Z,11.62
2022-10-14T07:07:46.652Z,11.65
2022-10-14T07:10:13.001Z,11.74
2022-10-14T07:12:41.774Z,11.81
2022-10-14T07:15:08.478Z,11.84
2022-10-14T07:17:34.808Z,11.78
2022-10-14T07:20:01.131Z,11.82
2022-10-14T07:22:27.491Z,11.90
2022-10-14T07:24:53.876Z,11.87
2022-10-14T07:27:20.836Z,11.90
2022-10-14T07:29:47.479Z,11.91
2022-10-14T07:32:13.799Z,11.97
2022-10-14T07:34:40.208Z,11.97
2022-10-14T07:37:06.540Z,11.88
2022-10-14T07:39:33.879Z,11.95
2022-10-14T07:42:00.258Z,11.97
2022-10-14T07:44:27.506Z,11.95
2022-10-14T07:46:54.120Z,11.93
2022-10-14T07:49:20.552Z,11.96
2022-10-14T07:51:46.962Z,11.98
2022-10-14T07:54:20.831Z,12.07
2022-10-14T07:56:49.203Z,12.13
2022-10-14T07:59:15.817Z,12.06
2022-10-14T08:01:43.009Z,12.13
2022-10-14T08:04:10.654Z,12.20
2022-10-14T08:06:36.987Z,12.33
2022-10-14T08:09:06.491Z,12.57
2022-10-14T08:11:33.006Z,12.64
2022-10-14T08:13:59.430Z,12.62
2022-10-14T08:16:26.719Z,12.64
2022-10-14T08:18:53.208Z,12.77
2022-10-14T08:21:19.833Z,12.89
2022-10-14T08:23:47.314Z,12.80
2022-10-14T08:26:33.122Z,12.79
2022-10-14T08:28:59.986Z,12.57
2022-10-14T08:31:26.337Z,12.56
2022-10-14T08:33:52.835Z,12.56
2022-10-14T08:36:19.479Z,12.61
2022-10-14T08:38:46.039Z,12.67
2022-10-14T08:41:12.346Z,12.75
2022-10-14T08:43:42.562Z,12.87
2022-10-14T08:46:25.176Z,12.83
2022-10-14T08:48:51.719Z,12.84
2022-10-14T08:51:18.210Z,12.80
2022-10-14T08:53:51.913Z,12.86
2022-10-14T08:56:18.252Z,12.83
2022-10-14T08:58:49.131Z,12.74
2022-10-14T09:01:24.655Z,12.94
2022-10-14T09:03:57.736Z,12.91
2022-10-14T09:06:28.435Z,12.84
2022-10-14T09:08:55.921Z,12.81
2022-10-14T09:11:22.315Z,12.76
2022-10-14T09:13:52.168Z,12.91
2022-10-14T09:16:18.527Z,13.00
2022-10-14T09:18:54.719Z,12.84
2022-10-14T09:21:40.406Z,12.85
2022-10-14T09:24:11.095Z,12.81
2022-10-14T09:26:44.158Z,12.79
2022-10-14T09:29:16.558Z,12.83
2022-10-14T09:31:42.940Z,12.88
2022-10-14T09:34:10.604Z,12.92
2022-10-14T09:36:36.954Z,12.99
2022-10-14T09:39:06.152Z,13.05
2022-10-14T09:41:33.296Z,13.15
2022-10-14T09:44:21.211Z,13.21
2022-10-14T09:47:02.245Z,13.12
2022-10-14T09:49:39.285Z,13.18
2022-10-14T09:52:05.920Z,13.13
2022-10-14T09:54:32.422Z,13.10
2022-10-14T09:57:02.641Z,13.00
2022-10-14T09:59:29.338Z,13.05
2022-10-14T10:01:57.524Z,13.10
2022-10-14T10:04:29.964Z,13.16
2022-10-14T10:06:56.399Z,13.10
2022-10-14T10:09:22.788Z,13.09
2022-10-14T10:11:49.192Z,13.15
2022-10-14T10:14:21.495Z,13.16
2022-10-14T10:16:48.130Z,13.29
2022-10-14T10:19:26.842Z,13.30
2022-10-14T10:21:53.487Z,13.30
2022-10-14T10:24:23.019Z,13.41
2022-10-14T10:26:51.311Z,13.44
2022-10-14T10:29:24.626Z,13.53
2022-10-14T10:31:54.165Z,13.57
2022-10-14T10:34:32.866Z,13.64
2022-10-14T10:37:19.657Z,13.71
2022-10-14T10:39:55.279Z,13.98
2022-10-14T10:42:30.812Z,14.15
2022-10-14T10:45:16.428Z,14.28
2022-10-14T10:47:45.529Z,14.27
2022-10-14T10:50:22.292Z,14.24
2022-10-14T10:52:52.039Z,14.10
2022-10-14T10:58:19.209Z,13.80
2022-10-14T11:00:47.368Z,13.75
2022-10-14T11:03:27.368Z,13.71
2022-10-14T11:05:53.676Z,13.75
2022-10-14T11:08:41.825Z,13.75
2022-10-14T11:11:33.444Z,13.85
2022-10-14T11:13:59.769Z,13.91
2022-10-14T11:16:28.419Z,13.92
2022-10-14T11:18:58.045Z,14.27
2022-10-14T11:21:24.375Z,14.31
2022-10-14T11:23:54.543Z,14.36
2022-10-14T11:26:24.974Z,14.67
2022-10-14T11:28:51.524Z,14.88
2022-10-14T11:31:17.874Z,14.85
2022-10-14T11:33:47.885Z,14.92
2022-10-14T11:36:14.221Z,14.96
2022-10-14T11:38:49.869Z,14.93
2022-10-14T11:41:19.187Z,14.76
2022-10-14T11:44:04.085Z,14.84
2022-10-14T11:46:32.753Z,14.87
2022-10-14T11:49:04.115Z,14.85
2022-10-14T11:51:37.555Z,15.00
2022-10-14T11:54:05.729Z,15.10
2022-10-14T11:56:42.813Z,15.21
2022-10-14T11:59:16.897Z,15.32
2022-10-14T12:01:43.689Z,15.34
2022-10-14T12:04:11.075Z,15.32
2022-10-14T12:06:38.346Z,15.16
2022-10-14T12:09:24.994Z,15.30
2022-10-14T12:11:52.665Z,15.31
2022-10-14T12:14:19.982Z,15.26
2022-10-14T12:16:46.396Z,15.32
2022-10-14T12:19:13.037Z,15.51
2022-10-14T12:21:46.802Z,15.79
2022-10-14T12:24:19.667Z,15.95
2022-10-14T12:27:04.845Z,15.93
2022-10-14T12:29:31.873Z,15.92
2022-10-14T12:32:08.475Z,15.78
2022-10-14T12:34:38.884Z,15.58
2022-10-14T12:37:27.277Z,15.45
2022-10-14T12:40:17.727Z,15.45
2022-10-14T12:42:44.160Z,15.46
2022-10-14T12:45:17.703Z,15.52
2022-10-14T12:47:44.124Z,15.55
2022-10-14T12:50:17.640Z,15.42
2022-10-14T12:52:44.892Z,15.42
2022-10-14T12:55:18.813Z,15.32
2022-10-14T12:57:45.427Z,15.30
2022-10-14T13:00:27.957Z,15.25
2022-10-14T13:02:59.532Z,15.29
2022-10-14T13:05:33.974Z,15.27
2022-10-14T13:08:11.898Z,15.18
2022-10-14T13:10:43.246Z,15.31
2022-10-14T13:13:38.213Z,15.31
2022-10-14T13:16:30.843Z,15.27
2022-10-14T13:19:00.426Z,15.28
2022-10-14T13:21:39.029Z,15.32
2022-10-14T13:24:06.357Z,15.17
2022-10-14T13:26:38.995Z,15.24
2022-10-14T13:29:20.689Z,15.45
2022-10-14T13:31:49.554Z,15.47
2022-10-14T13:34:18.920Z,15.56
2022-10-14T13:36:53.526Z,15.53
2022-10-14T13:39:19.857Z,15.45
2022-10-14T13:41:46.209Z,15.45
2022-10-14T13:44:12.537Z,15.39
2022-10-14T13:46:43.171Z,15.28
2022-10-14T13:49:17.475Z,15.24
2022-10-14T13:51:55.020Z,15.21
2022-10-14T13:54:22.339Z,15.23
2022-10-14T13:57:19.881Z,15.24
2022-10-14T14:00:33.156Z,15.01
2022-10-14T14:02:31.554Z,14.98
2022-10-14T14:04:58.098Z,14.99
2022-10-14T14:10:20.019Z,14.77
2022-10-14T14:12:46.384Z,14.81
2022-10-14T14:15:25.856Z,14.87
2022-10-14T14:17:52.878Z,14.88
2022-10-14T14:20:21.203Z,14.85
2022-10-14T14:22:47.589Z,14.92
2022-10-14T14:25:46.494Z,14.91
2022-10-14T14:28:11.757Z,14.96
2022-10-14T14:30:38.636Z,14.99
2022-10-14T14:33:06.906Z,14.86
2022-10-14T14:35:33.412Z,14.86
2022-10-14T14:38:00.088Z,14.89
2022-10-14T14:40:27.452Z,14.80
2022-10-14T14:42:54.363Z,14.78
2022-10-14T14:45:37.531Z,14.75
2022-10-14T14:48:06.996Z,14.57
2022-10-14T14:50:42.777Z,14.66
2022-10-14T14:53:13.859Z,14.57
2022-10-14T14:55:41.792Z,14.59
2022-10-14T14:58:20.518Z,14.57
2022-10-14T15:00:46.869Z,14.50
2022-10-14T15:03:13.240Z,14.47
2022-10-14T15:05:39.559Z,14.48
2022-10-14T15:08:05.907Z,14.42
2022-10-14T15:10:32.369Z,14.47
2022-10-14T15:12:59.336Z,14.48
2022-10-14T15:15:26.896Z,14.48
2022-10-14T15:18:12.001Z,14.43
2022-10-14T15:20:38.330Z,14.38
2022-10-14T15:23:23.442Z,14.38
2022-10-14T15:26:00.221Z,14.38
2022-10-14T15:28:33.432Z,14.32
2022-10-14T15:31:03.160Z,14.34
2022-10-14T15:33:32.049Z,14.33
2022-10-14T15:35:58.882Z,14.30
2022-10-14T15:38:25.333Z,14.31
2022-10-14T15:40:51.686Z,14.22
2022-10-14T15:43:24.859Z,14.28
2022-10-14T15:46:11.714Z,14.25
2022-10-14T15:48:41.681Z,14.23
2022-10-14T15:51:09.761Z,14.17
2022-10-14T15:53:36.474Z,14.14
2022-10-14T15:56:02.789Z,14.19
2022-10-14T15:58:29.112Z,14.01
2022-10-14T16:00:55.499Z,14.07
2022-10-14T16:03:21.867Z,14.00
2022-10-14T16:05:48.299Z,14.00
2022-10-14T16:08:15.238Z,14.00
2022-10-14T16:10:45.088Z,13.99
2022-10-14T16:13:11.782Z,13.92
2022-10-14T16:15:47.167Z,13.85
2022-10-14T16:18:13.665Z,13.89
2022-10-14T16:20:40.034Z,13.82
2022-10-14T16:23:06.459Z,13.79
2022-10-14T16:25:39.841Z,13.81
2022-10-14T16:28:10.268Z,13.75
2022-10-14T16:30:37.367Z,13.73
2022-10-14T16:33:03.985Z,13.62
2022-10-14T16:35:30.562Z,13.70
2022-10-14T16:37:56.947Z,13.70
2022-10-14T16:40:23.912Z,13.66
2022-10-14T16:42:50.427Z,13.66
2022-10-14T16:45:17.015Z,13.67
2022-10-14T16:47:43.718Z,13.64
2022-10-14T16:50:10.649Z,13.62
2022-10-14T16:52:56.714Z,13.57
2022-10-14T16:55:23.485Z,13.57
2022-10-14T16:57:49.846Z,13.58
2022-10-14T17:00:16.220Z,13.50
2022-10-14T17:02:42.584Z,13.47
2022-10-14T17:05:08.994Z,13.52
2022-10-14T17:07:35.435Z,13.47
2022-10-14T17:10:01.793Z,13.48
2022-10-14T17:12:28.128Z,13.47
2022-10-14T17:14:54.472Z,13.46
2022-10-14T17:17:23.740Z,13.42
2022-10-14T17:19:52.526Z,13.45
2022-10-14T17:22:20.822Z,13.51
2022-10-14T17:24:47.928Z,13.40
2022-10-14T17:27:14.288Z,13.38
2022-10-14T17:29:40.684Z,13.39
2022-10-14T17:32:07.026Z,13.36
2022-10-14T17:34:34.722Z,13.38
2022-10-14T17:37:01.151Z,13.36
2022-10-14T17:39:29.439Z,13.38
2022-10-14T17:41:58.393Z,13.41
2022-10-14T17:44:24.832Z,13.40
2022-10-14T17:46:51.169Z,13.39
2022-10-14T17:49:17.498Z,13.41
2022-10-14T17:51:44.830Z,13.43
2022-10-14T17:54:11.309Z,13.38
2022-10-14T17:56:37.787Z,13.40
2022-10-14T17:59:05.038Z,13.40
2022-10-14T18:01:37.071Z,13.45
2022-10-14T18:04:10.137Z,13.35
2022-10-14T18:06:37.304Z,13.41
2022-10-14T18:09:07.412Z,13.46
2022-10-14T18:12:03.628Z,13.46
2022-10-14T18:14:24.896Z,13.41
2022-10-14T18:16:52.317Z,13.42
2022-10-14T18:19:19.752Z,13.43
2022-10-14T18:21:46.194Z,13.43
2022-10-14T18:24:12.845Z,13.42
2022-10-14T18:26:42.084Z,13.45
2022-10-14T18:29:08.592Z,13.43
2022-10-14T18:31:35.317Z,13.43
2022-10-14T18:34:01.804Z,13.43
2022-10-14T18:36:29.104Z,13.37
2022-10-14T18:38:56.052Z,13.40
2022-10-14T18:41:22.427Z,13.37
2022-10-14T18:43:48.823Z,13.45
2022-10-14T18:46:16.132Z,13.40
2022-10-14T18:48:43.320Z,13.43
2022-10-14T18:51:09.852Z,13.38
2022-10-14T18:53:36.397Z,13.38
2022-10-14T18:56:08.549Z,13.35
2022-10-14T18:58:38.452Z,13.44
2022-10-14T19:01:05.412Z,13.37
2022-10-14T19:03:32.803Z,13.41
2022-10-14T19:06:01.159Z,13.44
2022-10-14T19:08:27.877Z,13.33
2022-10-14T19:11:00.916Z,13.40
2022-10-14T19:13:27.447Z,13.37
2022-10-14T19:16:03.562Z,13.41
2022-10-14T19:18:29.970Z,13.38
2022-10-14T19:21:03.555Z,13.41
2022-10-14T19:23:29.887Z,13.35
2022-10-14T19:25:59.154Z,13.36
2022-10-14T19:28:25.754Z,13.37
2022-10-14T19:30:52.187Z,13.34
2022-10-14T19:33:18.786Z,13.30
2022-10-14T19:35:50.810Z,13.31
2022-10-14T19:38:17.139Z,13.34
2022-10-14T19:40:43.515Z,13.27
2022-10-14T19:43:09.875Z,13.22
2022-10-14T19:45:39.816Z,13.26
2022-10-14T19:48:06.327Z,13.24
2022-10-14T19:50:32.655Z,13.31
2022-10-14T19:52:58.993Z,13.25
2022-10-14T19:55:25.325Z,13.31
2022-10-14T19:57:56.056Z,13.30
2022-10-14T20:00:22.860Z,13.32
2022-10-14T20:02:49.411Z,13.31
2022-10-14T20:05:17.372Z,13.34
2022-10-14T20:07:44.042Z,13.23
2022-10-14T20:10:10.736Z,13.26
2022-10-14T20:12:37.076Z,13.17
2022-10-14T20:15:03.661Z,13.23
2022-10-14T20:17:30.026Z,13.26
2022-10-14T20:19:56.356Z,13.24
2022-10-14T20:22:23.337Z,13.18
2022-10-14T20:24:50.127Z,13.23
2022-10-14T20:27:16.507Z,13.17
2022-10-14T20:29:42.898Z,13.20
2022-10-14T20:32:09.235Z,13.18
2022-10-14T20:34:35.632Z,13.18
2022-10-14T20:37:02.109Z,13.22
2022-10-14T20:39:28.419Z,13.18
2022-10-14T20:41:54.756Z,13.23
2022-10-14T20:44:23.890Z,13.29
2022-10-14T20:46:50.519Z,13.24
2022-10-14T20:49:16.839Z,13.20
2022-10-14T20:51:43.256Z,13.24
2022-10-14T20:54:11.750Z,13.29
2022-10-14T20:56:38.342Z,13.26
2022-10-14T20:59:05.624Z,13.20
2022-10-14T21:01:32.138Z,13.28
2022-10-14T21:04:00.127Z,13.35
2022-10-14T21:06:26.445Z,13.40
2022-10-14T21:08:52.842Z,13.41
2022-10-14T21:11:20.119Z,13.27
2022-10-14T21:13:52.209Z,13.24
2022-10-14T21:16:25.693Z,13.26
2022-10-14T21:18:56.815Z,13.31
2022-10-14T21:21:25.243Z,13.32
2022-10-14T21:23:52.296Z,13.26
2022-10-14T21:26:18.619Z,13.37
2022-10-14T21:28:45.016Z,13.29
2022-10-14T21:31:13.718Z,13.25
2022-10-14T21:33:43.568Z,13.12
2022-10-14T21:36:10.869Z,13.20
2022-10-14T21:38:37.196Z,13.27
2022-10-14T21:41:03.591Z,13.18
2022-10-14T21:43:30.271Z,13.33
2022-10-14T21:45:56.947Z,13.32
2022-10-14T21:48:23.363Z,13.23
2022-10-14T21:50:49.700Z,13.38
2022-10-14T21:53:18.559Z,13.23
2022-10-14T21:55:45.359Z,13.25
2022-10-14T21:58:11.718Z,13.28
2022-10-14T22:00:38.042Z,13.27
2022-10-14T22:03:04.389Z,13.35
2022-10-14T22:05:30.828Z,13.19
2022-10-14T22:07:57.212Z,13.18
2022-10-14T22:10:42.058Z,13.21
2022-10-14T22:13:08.442Z,13.27
2022-10-14T22:15:35.604Z,13.27
2022-10-14T22:18:02.008Z,13.19
2022-10-14T22:20:28.322Z,13.35
2022-10-14T22:22:54.676Z,13.25
2022-10-14T22:25:21.004Z,13.35
2022-10-14T22:27:47.330Z,13.34
2022-10-14T22:30:13.939Z,13.28
2022-10-14T22:32:40.674Z,13.17
2022-10-14T22:35:07.353Z,13.18
2022-10-14T22:37:33.684Z,13.08
2022-10-14T22:40:00.002Z,13.07
2022-10-14T22:44:55.380Z,13.22
2022-10-14T22:47:22.180Z,13.15
2022-10-14T22:49:48.749Z,13.17
2022-10-14T22:52:15.066Z,13.14
2022-10-14T22:54:41.388Z,13.08
2022-10-14T22:57:07.755Z,13.05
2022-10-14T22:59:34.152Z,13.06
2022-10-14T23:02:00.723Z,13.06
2022-10-14T23:04:27.091Z,13.01
2022-10-14T23:06:53.575Z,13.04
2022-10-14T23:09:19.937Z,13.08
2022-10-14T23:11:46.292Z,13.00
2022-10-14T23:14:12.978Z,12.95
2022-10-14T23:16:39.357Z,12.95
2022-10-14T23:19:05.718Z,12.90
2022-10-14T23:21:32.827Z,12.92
2022-10-14T23:23:59.830Z,12.90
2022-10-14T23:26:27.196Z,12.87
2022-10-14T23:28:57.517Z,12.87
2022-10-14T23:31:24.836Z,12.88
2022-10-14T23:33:53.371Z,12.92
2022-10-14T23:36:20.342Z,12.84
2022-10-14T23:38:46.747Z,12.83
2022-10-14T23:41:13.105Z,13.05
2022-10-14T23:43:39.717Z,12.98
2022-10-14T23:46:06.583Z,12.84
2022-10-14T23:48:33.180Z,12.76
2022-10-14T23:51:01.944Z,12.66
2022-10-14T23:53:28.381Z,12.70
2022-10-14T23:55:54.911Z,12.71
2022-10-14T23:58:21.415Z,12.76
